sensor_id;sensor_type;location;lat;lon;timestamp;temperature;humidity
8856;DHT22;4464;50.882;4.730;2022-12-20T00:01:29;12.60;99.90
8856;DHT22;4464;50.882;4.730;2022-12-20T00:04:03;12.70;99.90
8856;DHT22;4464;50.882;4.730;2022-12-20T00:06:34;12.70;99.90
8856;DHT22;4464;50.882;4.730;2022-12-20T00:09:02;12.70;99.90
8856;DHT22;4464;50.882;4.730;2022-12-20T00:11:32;12.70;99.90
8856;DHT22;4464;50.882;4.730;2022-12-20T00:13:58;12.70;99.90
8856;DHT22;4464;50.882;4.730;2022-12-20T00:16:26;12.60;99.90
8856;DHT22;4464;50.882;4.730;2022-12-20T00:19:01;12.70;99.90
8856;DHT22;4464;50.882;4.730;2022-12-20T00:21:28;12.70;99.90
8856;DHT22;4464;50.882;4.730;2022-12-20T00:23:55;12.50;99.90
8856;DHT22;4464;50.882;4.730;2022-12-20T00:26:24;12.40;99.90
8856;DHT22;4464;50.882;4.730;2022-12-20T00:28:51;12.30;99.90
8856;DHT22;4464;50.882;4.730;2022-12-20T00:31:19;12.30;99.90
8856;DHT22;4464;50.882;4.730;2022-12-20T00:33:47;12.30;99.90
8856;DHT22;4464;50.882;4.730;2022-12-20T00:36:13;12.30;99.90
8856;DHT22;4464;50.882;4.730;2022-12-20T00:38:40;12.40;99.90
8856;DHT22;4464;50.882;4.730;2022-12-20T00:41:06;12.50;99.90
8856;DHT22;4464;50.882;4.730;2022-12-20T00:43:35;12.30;99.90
8856;DHT22;4464;50.882;4.730;2022-12-20T00:46:02;12.00;99.90
8856;DHT22;4464;50.882;4.730;2022-12-20T00:48:32;11.80;99.90
8856;DHT22;4464;50.882;4.730;2022-12-20T00:51:01;11.60;99.90
8856;DHT22;4464;50.882;4.730;2022-12-20T00:53:27;11.50;99.90
8856;DHT22;4464;50.882;4.730;2022-12-20T00:55:56;11.40;99.90
8856;DHT22;4464;50.882;4.730;2022-12-20T00:58:22;11.40;99.90
8856;DHT22;4464;50.882;4.730;2022-12-20T01:00:49;11.40;99.90
8856;DHT22;4464;50.882;4.730;2022-12-20T01:03:15;11.40;99.90
8856;DHT22;4464;50.882;4.730;2022-12-20T01:05:51;11.30;99.90
8856;DHT22;4464;50.882;4.730;2022-12-20T01:08:18;11.30;99.90
8856;DHT22;4464;50.882;4.730;2022-12-20T01:10:44;11.40;99.90
8856;DHT22;4464;50.882;4.730;2022-12-20T01:13:10;11.40;99.90
8856;DHT22;4464;50.882;4.730;2022-12-20T01:15:39;11.30;99.90
8856;DHT22;4464;50.882;4.730;2022-12-20T01:18:05;11.40;99.90
8856;DHT22;4464;50.882;4.730;2022-12-20T01:20:31;11.40;99.90
8856;DHT22;4464;50.882;4.730;2022-12-20T01:22:57;11.50;99.90
8856;DHT22;4464;50.882;4.730;2022-12-20T01:25:23;11.50;99.90
8856;DHT22;4464;50.882;4.730;2022-12-20T01:27:49;11.50;99.90
8856;DHT22;4464;50.882;4.730;2022-12-20T01:30:18;11.40;99.90
8856;DHT22;4464;50.882;4.730;2022-12-20T01:32:46;11.40;99.90
8856;DHT22;4464;50.882;4.730;2022-12-20T01:35:12;11.40;99.90
8856;DHT22;4464;50.882;4.730;2022-12-20T01:37:38;11.30;99.90
8856;DHT22;4464;50.882;4.730;2022-12-20T01:40:05;11.40;99.90
8856;DHT22;4464;50.882;4.730;2022-12-20T01:42:32;11.40;99.90
8856;DHT22;4464;50.882;4.730;2022-12-20T01:44:58;11.50;99.90
8856;DHT22;4464;50.882;4.730;2022-12-20T01:47:24;11.50;99.90
8856;DHT22;4464;50.882;4.730;2022-12-20T01:49:52;11.50;99.90
8856;DHT22;4464;50.882;4.730;2022-12-20T01:52:28;11.40;99.90
8856;DHT22;4464;50.882;4.730;2022-12-20T01:55:03;11.40;99.90
8856;DHT22;4464;50.882;4.730;2022-12-20T01:57:48;11.30;99.90
8856;DHT22;4464;50.882;4.730;2022-12-20T02:00:17;11.30;99.90
8856;DHT22;4464;50.882;4.730;2022-12-20T02:02:47;11.30;99.90
8856;DHT22;4464;50.882;4.730;2022-12-20T02:05:16;11.20;99.90
8856;DHT22;4464;50.882;4.730;2022-12-20T02:07:43;11.30;99.90
8856;DHT22;4464;50.882;4.730;2022-12-20T02:10:11;11.40;99.90
8856;DHT22;4464;50.882;4.730;2022-12-20T02:12:42;11.40;99.90
8856;DHT22;4464;50.882;4.730;2022-12-20T02:15:45;11.50;99.90
8856;DHT22;4464;50.882;4.730;2022-12-20T02:26:54;11.90;99.90
8856;DHT22;4464;50.882;4.730;2022-12-20T02:35:22;11.90;99.90
8856;DHT22;4464;50.882;4.730;2022-12-20T02:37:54;11.90;99.90
8856;DHT22;4464;50.882;4.730;2022-12-20T02:40:24;11.90;99.90
8856;DHT22;4464;50.882;4.730;2022-12-20T02:42:55;11.90;99.90
8856;DHT22;4464;50.882;4.730;2022-12-20T02:45:27;11.90;99.90
8856;DHT22;4464;50.882;4.730;2022-12-20T02:48:08;11.90;99.90
8856;DHT22;4464;50.882;4.730;2022-12-20T02:50:41;11.80;99.90
8856;DHT22;4464;50.882;4.730;2022-12-20T02:53:08;11.80;99.90
8856;DHT22;4464;50.882;4.730;2022-12-20T02:55:53;11.80;99.90
8856;DHT22;4464;50.882;4.730;2022-12-20T02:58:49;11.70;99.90
8856;DHT22;4464;50.882;4.730;2022-12-20T03:01:37;11.70;99.90
8856;DHT22;4464;50.882;4.730;2022-12-20T03:04:04;11.70;99.90
8856;DHT22;4464;50.882;4.730;2022-12-20T03:06:30;11.70;99.90
8856;DHT22;4464;50.882;4.730;2022-12-20T03:08:59;11.70;99.90
8856;DHT22;4464;50.882;4.730;2022-12-20T03:11:27;11.70;99.90
8856;DHT22;4464;50.882;4.730;2022-12-20T03:13:53;11.80;99.90
8856;DHT22;4464;50.882;4.730;2022-12-20T03:16:19;11.80;99.90
8856;DHT22;4464;50.882;4.730;2022-12-20T03:18:45;11.80;99.90
8856;DHT22;4464;50.882;4.730;2022-12-20T03:21:11;11.80;99.90
8856;DHT22;4464;50.882;4.730;2022-12-20T03:23:38;11.80;99.90
8856;DHT22;4464;50.882;4.730;2022-12-20T03:26:04;11.80;99.90
8856;DHT22;4464;50.882;4.730;2022-12-20T03:28:30;11.90;99.90
8856;DHT22;4464;50.882;4.730;2022-12-20T03:30:58;11.90;99.90
8856;DHT22;4464;50.882;4.730;2022-12-20T03:33:24;11.90;99.90
8856;DHT22;4464;50.882;4.730;2022-12-20T03:35:50;11.90;99.90
8856;DHT22;4464;50.882;4.730;2022-12-20T03:38:18;11.90;99.90
8856;DHT22;4464;50.882;4.730;2022-12-20T03:40:44;12.00;99.90
8856;DHT22;4464;50.882;4.730;2022-12-20T03:43:10;12.00;99.90
8856;DHT22;4464;50.882;4.730;2022-12-20T03:45:36;11.90;99.90
8856;DHT22;4464;50.882;4.730;2022-12-20T03:48:02;11.90;99.90
8856;DHT22;4464;50.882;4.730;2022-12-20T03:50:33;11.90;99.90
8856;DHT22;4464;50.882;4.730;2022-12-20T03:53:03;11.80;99.90
8856;DHT22;4464;50.882;4.730;2022-12-20T03:55:30;11.80;99.90
8856;DHT22;4464;50.882;4.730;2022-12-20T03:57:58;11.70;99.90
8856;DHT22;4464;50.882;4.730;2022-12-20T04:00:24;11.50;99.90
8856;DHT22;4464;50.882;4.730;2022-12-20T04:02:52;11.40;99.90
8856;DHT22;4464;50.882;4.730;2022-12-20T04:05:21;11.30;99.90
8856;DHT22;4464;50.882;4.730;2022-12-20T04:07:47;11.20;99.90
8856;DHT22;4464;50.882;4.730;2022-12-20T04:10:13;11.20;99.90
8856;DHT22;4464;50.882;4.730;2022-12-20T04:12:39;11.10;99.90
8856;DHT22;4464;50.882;4.730;2022-12-20T04:15:08;11.10;99.90
8856;DHT22;4464;50.882;4.730;2022-12-20T04:17:36;11.00;99.90
8856;DHT22;4464;50.882;4.730;2022-12-20T04:20:04;11.00;99.90
8856;DHT22;4464;50.882;4.730;2022-12-20T04:22:46;10.90;99.90
8856;DHT22;4464;50.882;4.730;2022-12-20T04:25:17;10.90;99.90
8856;DHT22;4464;50.882;4.730;2022-12-20T04:27:43;10.90;99.90
8856;DHT22;4464;50.882;4.730;2022-12-20T04:30:09;10.90;99.90
8856;DHT22;4464;50.882;4.730;2022-12-20T04:32:39;10.90;99.90
8856;DHT22;4464;50.882;4.730;2022-12-20T04:35:05;10.90;99.90
8856;DHT22;4464;50.882;4.730;2022-12-20T04:37:32;10.90;99.90
8856;DHT22;4464;50.882;4.730;2022-12-20T04:39:57;11.00;99.90
8856;DHT22;4464;50.882;4.730;2022-12-20T04:42:24;11.00;99.90
8856;DHT22;4464;50.882;4.730;2022-12-20T04:44:53;11.00;99.90
8856;DHT22;4464;50.882;4.730;2022-12-20T04:47:18;11.10;99.90
8856;DHT22;4464;50.882;4.730;2022-12-20T04:49:45;11.10;99.90
8856;DHT22;4464;50.882;4.730;2022-12-20T04:52:14;11.20;99.90
8856;DHT22;4464;50.882;4.730;2022-12-20T04:55:01;11.20;99.90
8856;DHT22;4464;50.882;4.730;2022-12-20T04:57:32;11.20;99.90
8856;DHT22;4464;50.882;4.730;2022-12-20T04:59:58;11.30;99.90
8856;DHT22;4464;50.882;4.730;2022-12-20T05:02:24;11.40;99.90
8856;DHT22;4464;50.882;4.730;2022-12-20T05:04:49;11.60;99.90
8856;DHT22;4464;50.882;4.730;2022-12-20T05:07:16;11.70;99.90
8856;DHT22;4464;50.882;4.730;2022-12-20T05:09:42;11.70;99.90
8856;DHT22;4464;50.882;4.730;2022-12-20T05:12:08;11.70;99.90
8856;DHT22;4464;50.882;4.730;2022-12-20T05:14:35;11.80;99.90
8856;DHT22;4464;50.882;4.730;2022-12-20T05:17:00;11.80;99.90
8856;DHT22;4464;50.882;4.730;2022-12-20T05:19:26;11.90;99.90
8856;DHT22;4464;50.882;4.730;2022-12-20T05:21:52;11.80;99.90
8856;DHT22;4464;50.882;4.730;2022-12-20T05:24:36;11.80;99.90
8856;DHT22;4464;50.882;4.730;2022-12-20T05:27:20;11.80;99.90
8856;DHT22;4464;50.882;4.730;2022-12-20T05:29:47;11.80;99.90
8856;DHT22;4464;50.882;4.730;2022-12-20T05:32:16;11.80;99.90
8856;DHT22;4464;50.882;4.730;2022-12-20T05:34:45;11.80;99.90
8856;DHT22;4464;50.882;4.730;2022-12-20T05:37:12;11.80;99.90
8856;DHT22;4464;50.882;4.730;2022-12-20T05:39:37;11.70;99.90
8856;DHT22;4464;50.882;4.730;2022-12-20T05:42:04;11.70;99.90
8856;DHT22;4464;50.882;4.730;2022-12-20T05:44:32;11.70;99.90
8856;DHT22;4464;50.882;4.730;2022-12-20T05:46:58;11.70;99.90
8856;DHT22;4464;50.882;4.730;2022-12-20T05:49:26;11.70;99.90
8856;DHT22;4464;50.882;4.730;2022-12-20T05:51:52;11.60;99.90
8856;DHT22;4464;50.882;4.730;2022-12-20T05:54:18;11.60;99.90
8856;DHT22;4464;50.882;4.730;2022-12-20T05:56:46;11.60;99.90
8856;DHT22;4464;50.882;4.730;2022-12-20T05:59:11;11.60;99.90
8856;DHT22;4464;50.882;4.730;2022-12-20T06:01:37;11.60;99.90
8856;DHT22;4464;50.882;4.730;2022-12-20T06:04:03;11.60;99.90
8856;DHT22;4464;50.882;4.730;2022-12-20T06:06:30;11.60;99.90
8856;DHT22;4464;50.882;4.730;2022-12-20T06:08:59;11.50;99.90
8856;DHT22;4464;50.882;4.730;2022-12-20T06:11:25;11.50;99.90
8856;DHT22;4464;50.882;4.730;2022-12-20T06:13:51;11.60;99.90
8856;DHT22;4464;50.882;4.730;2022-12-20T06:16:17;11.50;99.90
8856;DHT22;4464;50.882;4.730;2022-12-20T06:18:45;11.50;99.90
8856;DHT22;4464;50.882;4.730;2022-12-20T06:21:11;11.50;99.90
8856;DHT22;4464;50.882;4.730;2022-12-20T06:23:37;11.50;99.90
8856;DHT22;4464;50.882;4.730;2022-12-20T06:26:05;11.50;99.90
8856;DHT22;4464;50.882;4.730;2022-12-20T06:28:34;11.50;99.90
8856;DHT22;4464;50.882;4.730;2022-12-20T06:31:00;11.60;99.90
8856;DHT22;4464;50.882;4.730;2022-12-20T06:33:27;11.60;99.90
8856;DHT22;4464;50.882;4.730;2022-12-20T06:35:52;11.60;99.90
8856;DHT22;4464;50.882;4.730;2022-12-20T06:38:19;11.60;99.90
8856;DHT22;4464;50.882;4.730;2022-12-20T06:40:48;11.70;99.90
8856;DHT22;4464;50.882;4.730;2022-12-20T06:43:15;11.70;99.90
8856;DHT22;4464;50.882;4.730;2022-12-20T06:45:42;11.70;99.90
8856;DHT22;4464;50.882;4.730;2022-12-20T06:48:10;11.70;99.90
8856;DHT22;4464;50.882;4.730;2022-12-20T06:50:37;11.80;99.90
8856;DHT22;4464;50.882;4.730;2022-12-20T06:53:09;11.90;99.90
8856;DHT22;4464;50.882;4.730;2022-12-20T06:55:35;11.90;99.90
8856;DHT22;4464;50.882;4.730;2022-12-20T06:58:02;11.90;99.90
8856;DHT22;4464;50.882;4.730;2022-12-20T07:00:28;11.90;99.90
8856;DHT22;4464;50.882;4.730;2022-12-20T07:02:54;12.00;99.90
8856;DHT22;4464;50.882;4.730;2022-12-20T07:05:22;12.10;99.90
8856;DHT22;4464;50.882;4.730;2022-12-20T07:07:48;12.10;99.90
8856;DHT22;4464;50.882;4.730;2022-12-20T07:10:15;12.10;99.90
8856;DHT22;4464;50.882;4.730;2022-12-20T07:12:41;12.10;99.90
8856;DHT22;4464;50.882;4.730;2022-12-20T07:15:15;12.10;99.90
8856;DHT22;4464;50.882;4.730;2022-12-20T07:17:40;12.10;99.90
8856;DHT22;4464;50.882;4.730;2022-12-20T07:20:09;12.00;99.90
8856;DHT22;4464;50.882;4.730;2022-12-20T07:22:35;11.90;99.90
8856;DHT22;4464;50.882;4.730;2022-12-20T07:25:01;11.80;99.90
8856;DHT22;4464;50.882;4.730;2022-12-20T07:27:30;11.70;99.90
8856;DHT22;4464;50.882;4.730;2022-12-20T07:29:56;11.60;99.90
8856;DHT22;4464;50.882;4.730;2022-12-20T07:32:27;11.50;99.90
8856;DHT22;4464;50.882;4.730;2022-12-20T07:34:56;11.40;99.90
8856;DHT22;4464;50.882;4.730;2022-12-20T07:37:25;11.40;99.90
8856;DHT22;4464;50.882;4.730;2022-12-20T07:39:55;11.40;99.90
8856;DHT22;4464;50.882;4.730;2022-12-20T07:42:22;11.30;99.90
8856;DHT22;4464;50.882;4.730;2022-12-20T07:44:50;11.30;99.90
8856;DHT22;4464;50.882;4.730;2022-12-20T07:47:16;11.20;99.90
8856;DHT22;4464;50.882;4.730;2022-12-20T07:49:44;11.20;99.90
8856;DHT22;4464;50.882;4.730;2022-12-20T07:52:12;11.10;99.90
8856;DHT22;4464;50.882;4.730;2022-12-20T07:54:55;11.00;99.90
8856;DHT22;4464;50.882;4.730;2022-12-20T07:57:31;11.00;99.90
8856;DHT22;4464;50.882;4.730;2022-12-20T07:59:59;10.90;99.90
8856;DHT22;4464;50.882;4.730;2022-12-20T08:02:36;10.90;99.90
8856;DHT22;4464;50.882;4.730;2022-12-20T08:05:05;10.90;99.90
8856;DHT22;4464;50.882;4.730;2022-12-20T08:07:32;10.80;99.90
8856;DHT22;4464;50.882;4.730;2022-12-20T08:09:59;10.80;99.90
8856;DHT22;4464;50.882;4.730;2022-12-20T08:12:31;10.70;99.90
8856;DHT22;4464;50.882;4.730;2022-12-20T08:15:00;10.70;99.90
8856;DHT22;4464;50.882;4.730;2022-12-20T08:17:28;10.60;99.90
8856;DHT22;4464;50.882;4.730;2022-12-20T08:19:54;10.60;99.90
8856;DHT22;4464;50.882;4.730;2022-12-20T08:22:21;10.60;99.90
8856;DHT22;4464;50.882;4.730;2022-12-20T08:24:50;10.60;99.90
8856;DHT22;4464;50.882;4.730;2022-12-20T08:27:16;10.70;99.90
8856;DHT22;4464;50.882;4.730;2022-12-20T08:29:44;10.70;99.90
8856;DHT22;4464;50.882;4.730;2022-12-20T08:32:11;10.70;99.90
8856;DHT22;4464;50.882;4.730;2022-12-20T08:34:41;10.70;99.90
8856;DHT22;4464;50.882;4.730;2022-12-20T08:37:09;10.70;99.90
8856;DHT22;4464;50.882;4.730;2022-12-20T08:39:35;10.70;99.90
8856;DHT22;4464;50.882;4.730;2022-12-20T08:42:03;10.70;99.90
8856;DHT22;4464;50.882;4.730;2022-12-20T08:44:30;10.70;99.90
8856;DHT22;4464;50.882;4.730;2022-12-20T08:46:59;10.70;99.90
8856;DHT22;4464;50.882;4.730;2022-12-20T08:49:27;10.80;99.90
8856;DHT22;4464;50.882;4.730;2022-12-20T08:51:53;10.80;99.90
8856;DHT22;4464;50.882;4.730;2022-12-20T08:54:19;10.80;99.90
8856;DHT22;4464;50.882;4.730;2022-12-20T08:56:45;10.80;99.90
8856;DHT22;4464;50.882;4.730;2022-12-20T08:59:14;10.80;99.90
8856;DHT22;4464;50.882;4.730;2022-12-20T09:01:40;10.80;99.90
8856;DHT22;4464;50.882;4.730;2022-12-20T09:04:06;10.90;99.90
8856;DHT22;4464;50.882;4.730;2022-12-20T09:06:34;10.90;99.90
8856;DHT22;4464;50.882;4.730;2022-12-20T09:09:00;11.00;99.90
8856;DHT22;4464;50.882;4.730;2022-12-20T09:11:29;11.00;99.90
8856;DHT22;4464;50.882;4.730;2022-12-20T09:13:57;11.10;99.90
8856;DHT22;4464;50.882;4.730;2022-12-20T09:16:27;11.10;99.90
8856;DHT22;4464;50.882;4.730;2022-12-20T09:19:00;11.30;99.90
8856;DHT22;4464;50.882;4.730;2022-12-20T09:21:26;11.30;99.90
8856;DHT22;4464;50.882;4.730;2022-12-20T09:23:54;11.50;99.90
8856;DHT22;4464;50.882;4.730;2022-12-20T09:26:22;11.60;99.90
8856;DHT22;4464;50.882;4.730;2022-12-20T09:28:51;11.60;99.90
8856;DHT22;4464;50.882;4.730;2022-12-20T09:31:20;11.60;99.90
8856;DHT22;4464;50.882;4.730;2022-12-20T09:33:46;11.50;99.90
8856;DHT22;4464;50.882;4.730;2022-12-20T09:36:14;11.50;99.90
8856;DHT22;4464;50.882;4.730;2022-12-20T09:38:45;11.60;99.90
8856;DHT22;4464;50.882;4.730;2022-12-20T09:44:10;11.60;99.90
8856;DHT22;4464;50.882;4.730;2022-12-20T09:46:40;11.70;99.90
8856;DHT22;4464;50.882;4.730;2022-12-20T09:49:14;11.80;99.90
8856;DHT22;4464;50.882;4.730;2022-12-20T09:59:48;11.60;99.90
8856;DHT22;4464;50.882;4.730;2022-12-20T10:02:19;11.50;99.90
8856;DHT22;4464;50.882;4.730;2022-12-20T10:04:48;11.40;99.90
8856;DHT22;4464;50.882;4.730;2022-12-20T10:07:30;11.40;99.90
8856;DHT22;4464;50.882;4.730;2022-12-20T10:13:34;11.30;99.90
8856;DHT22;4464;50.882;4.730;2022-12-20T10:15:53;11.20;99.90
8856;DHT22;4464;50.882;4.730;2022-12-20T10:21:40;11.20;99.90
8856;DHT22;4464;50.882;4.730;2022-12-20T10:24:43;11.20;99.90
8856;DHT22;4464;50.882;4.730;2022-12-20T10:27:16;11.20;99.90
8856;DHT22;4464;50.882;4.730;2022-12-20T10:29:44;11.20;99.90
8856;DHT22;4464;50.882;4.730;2022-12-20T10:32:19;11.20;99.90
8856;DHT22;4464;50.882;4.730;2022-12-20T10:37:35;11.20;99.90
8856;DHT22;4464;50.882;4.730;2022-12-20T10:40:02;11.20;99.90
8856;DHT22;4464;50.882;4.730;2022-12-20T10:42:38;11.20;99.90
8856;DHT22;4464;50.882;4.730;2022-12-20T10:45:28;11.30;99.90
8856;DHT22;4464;50.882;4.730;2022-12-20T10:48:03;11.30;99.90
8856;DHT22;4464;50.882;4.730;2022-12-20T10:50:30;11.30;99.90
8856;DHT22;4464;50.882;4.730;2022-12-20T10:55:38;11.20;99.90
8856;DHT22;4464;50.882;4.730;2022-12-20T10:58:15;11.20;99.90
8856;DHT22;4464;50.882;4.730;2022-12-20T11:00:43;11.20;99.90
8856;DHT22;4464;50.882;4.730;2022-12-20T11:03:20;11.20;99.90
8856;DHT22;4464;50.882;4.730;2022-12-20T11:06:19;11.20;99.90
8856;DHT22;4464;50.882;4.730;2022-12-20T11:08:48;11.20;99.90
8856;DHT22;4464;50.882;4.730;2022-12-20T11:11:22;11.20;99.90
8856;DHT22;4464;50.882;4.730;2022-12-20T11:13:49;11.20;99.90
8856;DHT22;4464;50.882;4.730;2022-12-20T11:21:48;11.10;99.90
8856;DHT22;4464;50.882;4.730;2022-12-20T11:24:48;11.10;99.90
8856;DHT22;4464;50.882;4.730;2022-12-20T11:30:37;11.10;99.90
8856;DHT22;4464;50.882;4.730;2022-12-20T11:33:37;11.10;99.90
8856;DHT22;4464;50.882;4.730;2022-12-20T11:39:07;11.10;99.90
8856;DHT22;4464;50.882;4.730;2022-12-20T11:50:18;11.10;99.90
8856;DHT22;4464;50.882;4.730;2022-12-20T11:53:21;11.20;99.90
8856;DHT22;4464;50.882;4.730;2022-12-20T11:55:53;11.10;99.90
8856;DHT22;4464;50.882;4.730;2022-12-20T11:58:28;11.10;99.90
8856;DHT22;4464;50.882;4.730;2022-12-20T12:01:10;11.00;99.90
8856;DHT22;4464;50.882;4.730;2022-12-20T12:03:41;11.00;99.90
8856;DHT22;4464;50.882;4.730;2022-12-20T12:06:34;11.00;99.90
8856;DHT22;4464;50.882;4.730;2022-12-20T12:11:31;11.00;99.90
8856;DHT22;4464;50.882;4.730;2022-12-20T12:13:59;10.90;99.90
8856;DHT22;4464;50.882;4.730;2022-12-20T12:16:39;11.00;99.90
8856;DHT22;4464;50.882;4.730;2022-12-20T12:19:13;11.00;99.90
8856;DHT22;4464;50.882;4.730;2022-12-20T12:21:48;10.90;99.90
8856;DHT22;4464;50.882;4.730;2022-12-20T12:24:42;10.90;99.90
8856;DHT22;4464;50.882;4.730;2022-12-20T12:27:25;10.80;99.90
8856;DHT22;4464;50.882;4.730;2022-12-20T12:29:53;10.90;99.90
8856;DHT22;4464;50.882;4.730;2022-12-20T12:32:31;10.80;99.90
8856;DHT22;4464;50.882;4.730;2022-12-20T12:46:46;10.70;99.90
8856;DHT22;4464;50.882;4.730;2022-12-20T12:49:17;10.60;99.90
8856;DHT22;4464;50.882;4.730;2022-12-20T12:51:57;10.60;99.90
8856;DHT22;4464;50.882;4.730;2022-12-20T12:54:29;10.60;99.90
8856;DHT22;4464;50.882;4.730;2022-12-20T12:57:10;10.60;99.90
8856;DHT22;4464;50.882;4.730;2022-12-20T12:59:41;10.60;99.90
8856;DHT22;4464;50.882;4.730;2022-12-20T13:09:59;10.60;99.90
8856;DHT22;4464;50.882;4.730;2022-12-20T13:18:20;10.50;99.90
8856;DHT22;4464;50.882;4.730;2022-12-20T13:26:55;10.50;99.90
8856;DHT22;4464;50.882;4.730;2022-12-20T13:29:24;10.50;99.90
8856;DHT22;4464;50.882;4.730;2022-12-20T13:31:53;10.50;99.90
8856;DHT22;4464;50.882;4.730;2022-12-20T13:34:39;10.60;99.90
8856;DHT22;4464;50.882;4.730;2022-12-20T13:37:50;10.60;99.90
8856;DHT22;4464;50.882;4.730;2022-12-20T13:43:22;10.50;99.90
8856;DHT22;4464;50.882;4.730;2022-12-20T13:51:01;10.50;99.90
8856;DHT22;4464;50.882;4.730;2022-12-20T13:53:30;10.50;99.90
8856;DHT22;4464;50.882;4.730;2022-12-20T13:55:57;10.50;99.90
8856;DHT22;4464;50.882;4.730;2022-12-20T13:58:43;10.50;99.90
8856;DHT22;4464;50.882;4.730;2022-12-20T14:01:12;10.50;99.90
8856;DHT22;4464;50.882;4.730;2022-12-20T14:03:44;10.50;99.90
8856;DHT22;4464;50.882;4.730;2022-12-20T14:06:13;10.50;99.90
8856;DHT22;4464;50.882;4.730;2022-12-20T14:08:48;10.50;99.90
8856;DHT22;4464;50.882;4.730;2022-12-20T14:11:18;10.50;99.90
8856;DHT22;4464;50.882;4.730;2022-12-20T14:13:51;10.50;99.90
8856;DHT22;4464;50.882;4.730;2022-12-20T14:16:19;10.50;99.90
8856;DHT22;4464;50.882;4.730;2022-12-20T14:18:59;10.50;99.90
8856;DHT22;4464;50.882;4.730;2022-12-20T14:21:27;10.50;99.90
8856;DHT22;4464;50.882;4.730;2022-12-20T14:23:55;10.60;99.90
8856;DHT22;4464;50.882;4.730;2022-12-20T14:26:32;10.60;99.90
8856;DHT22;4464;50.882;4.730;2022-12-20T14:29:01;10.50;99.90
8856;DHT22;4464;50.882;4.730;2022-12-20T14:34:05;10.50;99.90
8856;DHT22;4464;50.882;4.730;2022-12-20T14:36:32;10.50;99.90
8856;DHT22;4464;50.882;4.730;2022-12-20T14:38:59;10.50;99.90
8856;DHT22;4464;50.882;4.730;2022-12-20T14:41:32;10.50;99.90
8856;DHT22;4464;50.882;4.730;2022-12-20T14:44:21;10.60;99.90
8856;DHT22;4464;50.882;4.730;2022-12-20T14:47:03;10.50;99.90
8856;DHT22;4464;50.882;4.730;2022-12-20T14:49:36;10.60;99.90
8856;DHT22;4464;50.882;4.730;2022-12-20T14:52:35;10.50;99.90
8856;DHT22;4464;50.882;4.730;2022-12-20T14:55:06;10.60;99.90
8856;DHT22;4464;50.882;4.730;2022-12-20T15:00:13;10.50;99.90
8856;DHT22;4464;50.882;4.730;2022-12-20T15:13:20;10.50;99.90
8856;DHT22;4464;50.882;4.730;2022-12-20T15:15:47;10.50;99.90
8856;DHT22;4464;50.882;4.730;2022-12-20T15:18:15;10.50;99.90
8856;DHT22;4464;50.882;4.730;2022-12-20T15:20:43;10.40;99.90
8856;DHT22;4464;50.882;4.730;2022-12-20T15:23:29;10.50;99.90
8856;DHT22;4464;50.882;4.730;2022-12-20T15:25:57;10.50;99.90
8856;DHT22;4464;50.882;4.730;2022-12-20T15:28:25;10.50;99.90
8856;DHT22;4464;50.882;4.730;2022-12-20T15:30:52;10.40;99.90
8856;DHT22;4464;50.882;4.730;2022-12-20T15:33:27;10.40;99.90
8856;DHT22;4464;50.882;4.730;2022-12-20T15:35:55;10.50;99.90
8856;DHT22;4464;50.882;4.730;2022-12-20T15:38:25;10.50;99.90
8856;DHT22;4464;50.882;4.730;2022-12-20T15:40:59;10.40;99.90
8856;DHT22;4464;50.882;4.730;2022-12-20T15:43:27;10.50;99.90
8856;DHT22;4464;50.882;4.730;2022-12-20T15:45:54;10.40;99.90
8856;DHT22;4464;50.882;4.730;2022-12-20T15:48:23;10.40;99.90
8856;DHT22;4464;50.882;4.730;2022-12-20T15:50:53;10.40;99.90
8856;DHT22;4464;50.882;4.730;2022-12-20T15:53:27;10.40;99.90
8856;DHT22;4464;50.882;4.730;2022-12-20T15:55:54;10.40;99.90
8856;DHT22;4464;50.882;4.730;2022-12-20T15:58:22;10.40;99.90
8856;DHT22;4464;50.882;4.730;2022-12-20T16:00:53;10.40;99.90
8856;DHT22;4464;50.882;4.730;2022-12-20T16:03:24;10.40;99.90
8856;DHT22;4464;50.882;4.730;2022-12-20T16:05:51;10.40;99.90
8856;DHT22;4464;50.882;4.730;2022-12-20T16:08:17;10.40;99.90
8856;DHT22;4464;50.882;4.730;2022-12-20T16:10:48;10.40;99.90
8856;DHT22;4464;50.882;4.730;2022-12-20T16:13:23;10.40;99.90
8856;DHT22;4464;50.882;4.730;2022-12-20T16:15:51;10.40;99.90
8856;DHT22;4464;50.882;4.730;2022-12-20T16:18:18;10.40;99.90
8856;DHT22;4464;50.882;4.730;2022-12-20T16:20:45;10.40;99.90
8856;DHT22;4464;50.882;4.730;2022-12-20T16:23:20;10.40;99.90
8856;DHT22;4464;50.882;4.730;2022-12-20T16:25:49;10.40;99.90
8856;DHT22;4464;50.882;4.730;2022-12-20T16:28:16;10.40;99.90
8856;DHT22;4464;50.882;4.730;2022-12-20T16:30:45;10.40;99.90
8856;DHT22;4464;50.882;4.730;2022-12-20T16:33:19;10.40;99.90
8856;DHT22;4464;50.882;4.730;2022-12-20T16:35:45;10.40;99.90
8856;DHT22;4464;50.882;4.730;2022-12-20T16:38:12;10.40;99.90
8856;DHT22;4464;50.882;4.730;2022-12-20T16:40:38;10.40;99.90
8856;DHT22;4464;50.882;4.730;2022-12-20T16:43:04;10.40;99.90
8856;DHT22;4464;50.882;4.730;2022-12-20T16:45:32;10.40;99.90
8856;DHT22;4464;50.882;4.730;2022-12-20T16:47:59;10.40;99.90
8856;DHT22;4464;50.882;4.730;2022-12-20T16:50:27;10.40;99.90
8856;DHT22;4464;50.882;4.730;2022-12-20T16:52:56;10.40;99.90
8856;DHT22;4464;50.882;4.730;2022-12-20T16:55:26;10.40;99.90
8856;DHT22;4464;50.882;4.730;2022-12-20T16:57:52;10.40;99.90
8856;DHT22;4464;50.882;4.730;2022-12-20T17:00:24;10.40;99.90
8856;DHT22;4464;50.882;4.730;2022-12-20T17:02:53;10.40;99.90
8856;DHT22;4464;50.882;4.730;2022-12-20T17:05:21;10.40;99.90
8856;DHT22;4464;50.882;4.730;2022-12-20T17:07:49;10.40;99.90
8856;DHT22;4464;50.882;4.730;2022-12-20T17:10:16;10.40;99.90
8856;DHT22;4464;50.882;4.730;2022-12-20T17:12:47;10.40;99.90
8856;DHT22;4464;50.882;4.730;2022-12-20T17:17:45;10.40;99.90
8856;DHT22;4464;50.882;4.730;2022-12-20T17:20:13;10.40;99.90
8856;DHT22;4464;50.882;4.730;2022-12-20T17:22:39;10.40;99.90
8856;DHT22;4464;50.882;4.730;2022-12-20T17:25:10;10.40;99.90
8856;DHT22;4464;50.882;4.730;2022-12-20T17:27:38;10.40;99.90
8856;DHT22;4464;50.882;4.730;2022-12-20T17:30:05;10.40;99.90
8856;DHT22;4464;50.882;4.730;2022-12-20T17:32:31;10.40;99.90
8856;DHT22;4464;50.882;4.730;2022-12-20T17:34:58;10.40;99.90
8856;DHT22;4464;50.882;4.730;2022-12-20T17:37:23;10.40;99.90
8856;DHT22;4464;50.882;4.730;2022-12-20T17:39:50;10.40;99.90
8856;DHT22;4464;50.882;4.730;2022-12-20T17:42:17;10.40;99.90
8856;DHT22;4464;50.882;4.730;2022-12-20T17:44:46;10.40;99.90
8856;DHT22;4464;50.882;4.730;2022-12-20T17:47:14;10.40;99.90
8856;DHT22;4464;50.882;4.730;2022-12-20T17:49:41;10.40;99.90
8856;DHT22;4464;50.882;4.730;2022-12-20T17:52:14;10.40;99.90
8856;DHT22;4464;50.882;4.730;2022-12-20T17:54:40;10.40;99.90
8856;DHT22;4464;50.882;4.730;2022-12-20T17:57:16;10.40;99.90
8856;DHT22;4464;50.882;4.730;2022-12-20T17:59:42;10.40;99.90
8856;DHT22;4464;50.882;4.730;2022-12-20T18:02:20;10.40;99.90
8856;DHT22;4464;50.882;4.730;2022-12-20T18:04:50;10.40;99.90
8856;DHT22;4464;50.882;4.730;2022-12-20T18:07:19;10.40;99.90
8856;DHT22;4464;50.882;4.730;2022-12-20T18:09:48;10.40;99.90
8856;DHT22;4464;50.882;4.730;2022-12-20T18:12:15;10.40;99.90
8856;DHT22;4464;50.882;4.730;2022-12-20T18:14:42;10.40;99.90
8856;DHT22;4464;50.882;4.730;2022-12-20T18:17:10;10.40;99.90
8856;DHT22;4464;50.882;4.730;2022-12-20T18:19:41;10.40;99.90